createdAt,value
2022-12-04T00:02:15.948Z,2.39
2022-12-04T00:04:45.409Z,2.30
2022-12-04T00:07:16.032Z,2.28
2022-12-04T00:09:46.650Z,2.32
2022-12-04T00:12:44.791Z,2.33
2022-12-04T00:17:53.154Z,2.39
2022-12-04T00:20:23.099Z,2.37
2022-12-04T00:22:53.510Z,2.36
2022-12-04T00:25:21.166Z,2.39
2022-12-04T00:27:56.958Z,2.39
2022-12-04T00:30:27.350Z,2.43
2022-12-04T00:32:56.825Z,2.40
2022-12-04T00:35:26.037Z,2.35
2022-12-04T00:37:55.033Z,2.41
2022-12-04T00:40:26.819Z,2.40
2022-12-04T00:42:55.558Z,2.37
2022-12-04T00:45:26.671Z,2.40
2022-12-04T00:47:56.557Z,2.33
2022-12-04T00:50:33.017Z,2.36
2022-12-04T00:53:02.468Z,2.34
2022-12-04T00:55:33.274Z,2.40
2022-12-04T00:58:14.066Z,2.39
2022-12-04T01:00:43.390Z,2.38
2022-12-04T01:03:12.866Z,2.36
2022-12-04T01:05:41.746Z,2.34
2022-12-04T01:08:10.072Z,2.35
2022-12-04T01:10:40.867Z,2.31
2022-12-04T01:13:08.735Z,2.23
2022-12-04T01:15:39.921Z,2.28
2022-12-04T01:18:07.997Z,2.22
2022-12-04T01:20:37.247Z,2.25
2022-12-04T01:23:05.072Z,2.27
2022-12-04T01:25:33.042Z,2.18
2022-12-04T01:28:00.578Z,2.21
2022-12-04T01:30:28.372Z,2.20
2022-12-04T01:32:55.910Z,2.17
2022-12-04T01:35:23.450Z,2.12
2022-12-04T01:37:52.264Z,2.13
2022-12-04T01:40:19.825Z,2.11
2022-12-04T01:42:47.348Z,2.14
2022-12-04T01:45:39.863Z,2.04
2022-12-04T01:48:17.209Z,2.08
2022-12-04T01:50:45.427Z,2.13
2022-12-04T01:53:14.889Z,2.13
2022-12-04T01:55:42.630Z,2.12
2022-12-04T01:58:10.667Z,2.10
2022-12-04T02:00:38.237Z,2.13
2022-12-04T02:03:05.854Z,2.14
2022-12-04T02:05:33.415Z,2.10
2022-12-04T02:08:02.500Z,2.15
2022-12-04T02:10:38.395Z,2.25
2022-12-04T02:13:11.103Z,2.21
2022-12-04T02:15:43.179Z,2.17
2022-12-04T02:18:14.218Z,2.13
2022-12-04T02:20:48.106Z,2.11
2022-12-04T02:23:33.822Z,2.13
2022-12-04T02:26:08.044Z,2.09
2022-12-04T02:28:40.904Z,2.08
2022-12-04T02:31:13.445Z,2.03
2022-12-04T02:33:46.280Z,2.00
2022-12-04T02:36:17.929Z,2.03
2022-12-04T02:38:48.591Z,2.09
2022-12-04T02:41:19.576Z,2.05
2022-12-04T02:43:50.197Z,2.09
2022-12-04T02:46:20.855Z,2.08
2022-12-04T02:48:50.949Z,2.05
2022-12-04T02:51:20.723Z,2.01
2022-12-04T02:53:51.673Z,2.07
2022-12-04T02:56:22.272Z,2.06
2022-12-04T02:58:53.576Z,2.12
2022-12-04T03:01:26.060Z,2.07
2022-12-04T03:03:57.215Z,2.06
2022-12-04T03:06:26.766Z,2.13
2022-12-04T03:08:58.030Z,2.15
2022-12-04T03:11:26.713Z,2.19
2022-12-04T03:13:59.931Z,2.12
2022-12-04T03:16:30.290Z,2.17
2022-12-04T03:19:00.527Z,2.13
2022-12-04T03:21:31.265Z,2.16
2022-12-04T03:24:04.378Z,2.10
2022-12-04T03:26:35.719Z,2.20
2022-12-04T03:29:10.163Z,2.21
2022-12-04T03:31:42.885Z,2.21
2022-12-04T03:34:11.840Z,2.17
2022-12-04T03:36:43.925Z,2.14
2022-12-04T03:39:18.680Z,2.09
2022-12-04T03:41:54.045Z,2.09
2022-12-04T03:44:24.478Z,2.09
2022-12-04T03:46:56.094Z,2.07
2022-12-04T03:49:26.345Z,2.05
2022-12-04T03:51:58.804Z,2.06
2022-12-04T03:54:29.748Z,2.10
2022-12-04T03:57:00.730Z,2.07
2022-12-04T03:59:31.490Z,2.04
2022-12-04T04:02:01.328Z,2.03
2022-12-04T04:04:32.880Z,2.05
2022-12-04T04:07:04.463Z,2.04
2022-12-04T04:09:35.961Z,2.11
2022-12-04T04:12:06.748Z,2.16
2022-12-04T04:14:55.613Z,2.11
2022-12-04T04:17:46.352Z,2.07
2022-12-04T04:20:34.716Z,2.09
2022-12-04T04:23:22.131Z,2.07
2022-12-04T04:25:50.000Z,2.09
2022-12-04T04:28:29.314Z,2.10
2022-12-04T04:31:06.009Z,2.09
2022-12-04T04:33:35.589Z,2.09
2022-12-04T04:36:08.792Z,2.09
2022-12-04T04:38:40.636Z,2.10
2022-12-04T04:41:11.315Z,2.10
2022-12-04T04:43:43.894Z,2.11
2022-12-04T04:46:15.600Z,2.06
2022-12-04T04:48:45.360Z,2.13
2022-12-04T04:51:13.210Z,2.11
2022-12-04T04:53:43.724Z,2.14
2022-12-04T04:56:11.404Z,2.11
2022-12-04T04:58:38.934Z,2.06
2022-12-04T05:01:09.763Z,2.04
2022-12-04T05:03:38.840Z,2.08
2022-12-04T05:06:06.973Z,2.10
2022-12-04T05:08:34.556Z,2.15
2022-12-04T05:11:02.264Z,2.12
2022-12-04T05:13:30.651Z,2.03
2022-12-04T05:15:59.015Z,2.03
2022-12-04T05:18:26.741Z,2.04
2022-12-04T05:20:54.862Z,2.03
2022-12-04T05:23:22.567Z,1.97
2022-12-04T05:25:50.081Z,2.07
2022-12-04T05:28:17.903Z,2.02
2022-12-04T05:30:45.970Z,2.04
2022-12-04T05:33:13.492Z,1.99
2022-12-04T05:35:41.018Z,2.01
2022-12-04T05:38:09.882Z,2.01
2022-12-04T05:40:37.404Z,2.06
2022-12-04T05:43:05.006Z,2.07
2022-12-04T05:45:32.501Z,2.08
2022-12-04T05:47:59.996Z,2.06
2022-12-04T05:50:27.477Z,2.02
2022-12-04T05:52:55.065Z,2.06
2022-12-04T05:55:23.933Z,2.06
2022-12-04T05:57:51.440Z,2.05
2022-12-04T06:00:19.476Z,2.00
2022-12-04T06:02:47.123Z,1.98
2022-12-04T06:05:14.808Z,1.98
2022-12-04T06:07:42.385Z,1.90
2022-12-04T06:10:10.111Z,1.89
2022-12-04T06:12:39.003Z,1.89
2022-12-04T06:15:07.297Z,1.96
2022-12-04T06:17:34.829Z,1.90
2022-12-04T06:20:06.528Z,1.92
2022-12-04T06:22:37.225Z,1.87
2022-12-04T06:25:05.059Z,1.87
2022-12-04T06:27:32.526Z,1.84
2022-12-04T06:30:01.481Z,1.97
2022-12-04T06:32:29.287Z,1.97
2022-12-04T06:34:56.841Z,1.98
2022-12-04T06:37:25.935Z,1.99
2022-12-04T06:39:53.784Z,1.99
2022-12-04T06:42:21.422Z,1.94
2022-12-04T06:44:50.023Z,1.92
2022-12-04T06:47:18.874Z,1.88
2022-12-04T06:49:50.358Z,1.88
2022-12-04T06:52:18.191Z,1.86
2022-12-04T06:54:45.679Z,1.85
2022-12-04T06:57:13.222Z,1.85
2022-12-04T06:59:40.993Z,1.93
2022-12-04T07:02:10.370Z,1.89
2022-12-04T07:04:39.324Z,1.96
2022-12-04T07:07:09.211Z,1.97
2022-12-04T07:09:36.928Z,2.04
2022-12-04T07:12:04.732Z,2.05
2022-12-04T07:14:32.296Z,2.04
2022-12-04T07:17:07.512Z,1.92
2022-12-04T07:19:35.100Z,1.92
2022-12-04T07:22:04.020Z,1.91
2022-12-04T07:24:31.529Z,1.85
2022-12-04T07:26:59.008Z,1.78
2022-12-04T07:29:26.642Z,1.81
2022-12-04T07:31:54.409Z,1.79
2022-12-04T07:34:23.590Z,1.76
2022-12-04T07:36:51.505Z,1.77
2022-12-04T07:39:20.731Z,1.77
2022-12-04T07:41:48.630Z,1.85
2022-12-04T07:44:19.110Z,1.86
2022-12-04T07:46:47.298Z,1.98
2022-12-04T07:49:17.650Z,2.01
2022-12-04T07:51:56.683Z,2.03
2022-12-04T07:54:26.029Z,2.05
2022-12-04T07:56:53.807Z,2.03
2022-12-04T07:59:21.623Z,2.07
2022-12-04T08:01:52.330Z,2.06
2022-12-04T08:04:20.331Z,2.05
2022-12-04T08:06:49.307Z,2.08
2022-12-04T08:09:21.578Z,2.13
2022-12-04T08:11:55.137Z,2.09
2022-12-04T08:14:26.129Z,2.09
2022-12-04T08:17:09.145Z,2.07
2022-12-04T08:19:49.769Z,2.03
2022-12-04T08:22:25.295Z,2.07
2022-12-04T08:24:56.058Z,2.09
2022-12-04T08:27:29.793Z,2.04
2022-12-04T08:29:57.986Z,2.05
2022-12-04T08:32:28.853Z,2.18
2022-12-04T08:35:01.042Z,2.19
2022-12-04T08:37:40.172Z,2.11
2022-12-04T08:40:11.858Z,2.04
2022-12-04T08:42:40.971Z,2.07
2022-12-04T08:45:14.555Z,2.04
2022-12-04T08:47:42.485Z,2.09
2022-12-04T08:50:10.920Z,2.05
2022-12-04T08:52:38.933Z,2.09
2022-12-04T08:55:11.740Z,2.06
2022-12-04T08:57:43.521Z,2.08
2022-12-04T09:00:14.856Z,2.05
2022-12-04T09:02:42.809Z,2.18
2022-12-04T09:05:15.502Z,2.18
2022-12-04T09:07:43.322Z,2.23
2022-12-04T09:10:18.273Z,2.21
2022-12-04T09:12:47.385Z,2.25
2022-12-04T09:15:16.848Z,2.26
2022-12-04T09:17:44.381Z,2.26
2022-12-04T09:20:12.403Z,2.24
2022-12-04T09:23:02.119Z,2.26
2022-12-04T09:25:27.400Z,2.27
2022-12-04T09:27:56.528Z,2.32
2022-12-04T09:30:24.046Z,2.35
2022-12-04T09:32:51.558Z,2.42
2022-12-04T09:35:19.299Z,2.40
2022-12-04T09:37:46.798Z,2.38
2022-12-04T09:40:23.891Z,2.36
2022-12-04T09:42:58.748Z,2.45
2022-12-04T09:45:27.317Z,2.47
2022-12-04T09:47:57.868Z,2.51
2022-12-04T09:50:27.858Z,2.57
2022-12-04T09:52:57.953Z,2.57
2022-12-04T09:55:27.896Z,2.62
2022-12-04T09:58:02.004Z,2.59
2022-12-04T10:00:30.899Z,2.57
2022-12-04T10:03:01.848Z,2.62
2022-12-04T10:05:39.504Z,2.63
2022-12-04T10:08:10.947Z,2.63
2022-12-04T10:10:40.929Z,2.58
2022-12-04T10:13:25.545Z,2.59
2022-12-04T10:15:56.894Z,2.60
2022-12-04T10:18:33.346Z,2.66
2022-12-04T10:21:22.110Z,2.69
2022-12-04T10:24:02.988Z,2.75
2022-12-04T10:26:34.502Z,2.71
2022-12-04T10:29:05.235Z,2.66
2022-12-04T10:31:33.930Z,2.72
2022-12-04T10:34:04.814Z,2.75
2022-12-04T10:36:34.608Z,2.73
2022-12-04T10:39:04.739Z,2.77
2022-12-04T10:41:36.523Z,2.74
2022-12-04T10:44:05.718Z,2.82
2022-12-04T10:46:35.495Z,2.81
2022-12-04T10:49:06.638Z,2.85
2022-12-04T10:51:39.869Z,2.90
2022-12-04T10:54:16.450Z,2.87
2022-12-04T10:56:51.821Z,2.86
2022-12-04T10:59:21.057Z,2.82
2022-12-04T11:01:48.850Z,2.82
2022-12-04T11:04:22.321Z,2.87
2022-12-04T11:06:50.888Z,2.88
2022-12-04T11:09:24.880Z,2.86
2022-12-04T11:11:53.617Z,2.81
2022-12-04T11:14:23.968Z,2.87
2022-12-04T11:17:02.004Z,2.86
2022-12-04T11:19:31.448Z,2.86
2022-12-04T11:22:01.641Z,2.85
2022-12-04T11:24:31.836Z,2.90
2022-12-04T11:26:59.529Z,2.90
2022-12-04T11:29:33.158Z,2.96
2022-12-04T11:32:07.195Z,2.99
2022-12-04T11:34:37.611Z,3.05
2022-12-04T11:37:05.766Z,3.11
2022-12-04T11:39:36.515Z,3.06
2022-12-04T11:42:06.750Z,3.08
2022-12-04T11:44:37.471Z,3.11
2022-12-04T11:47:06.419Z,3.11
2022-12-04T11:49:34.203Z,3.14
2022-12-04T11:52:11.245Z,3.17
2022-12-04T11:54:47.134Z,3.16
2022-12-04T11:57:24.777Z,3.15
2022-12-04T12:00:05.958Z,3.17
2022-12-04T12:02:51.343Z,3.24
2022-12-04T12:05:42.665Z,3.25
2022-12-04T12:08:15.221Z,3.21
2022-12-04T12:10:49.173Z,3.16
2022-12-04T12:13:23.215Z,3.19
2022-12-04T12:15:59.796Z,3.22
2022-12-04T12:18:47.794Z,3.30
2022-12-04T12:21:19.062Z,3.27
2022-12-04T12:24:14.373Z,3.24
2022-12-04T12:26:46.905Z,3.23
2022-12-04T12:29:27.364Z,3.20
2022-12-04T12:32:09.044Z,3.20
2022-12-04T12:34:38.750Z,3.19
2022-12-04T12:37:12.633Z,3.20
2022-12-04T12:39:41.448Z,3.25
2022-12-04T12:42:15.963Z,3.26
2022-12-04T12:44:50.031Z,3.33
2022-12-04T12:47:20.674Z,3.39
2022-12-04T12:49:53.817Z,3.41
2022-12-04T12:52:32.227Z,3.48
2022-12-04T12:55:04.180Z,3.44
2022-12-04T12:57:34.854Z,3.50
2022-12-04T13:00:07.712Z,3.47
2022-12-04T13:02:39.502Z,3.45
2022-12-04T13:05:10.690Z,3.48
2022-12-04T13:07:44.152Z,3.48
2022-12-04T13:10:18.028Z,3.50
2022-12-04T13:12:49.145Z,3.48
2022-12-04T13:15:18.561Z,3.51
2022-12-04T13:17:49.625Z,3.49
2022-12-04T13:20:20.137Z,3.61
2022-12-04T13:22:58.514Z,3.55
2022-12-04T13:25:35.490Z,3.56
2022-12-04T13:28:11.917Z,3.56
2022-12-04T13:30:44.061Z,3.52
2022-12-04T13:33:29.067Z,3.46
2022-12-04T13:36:16.383Z,3.47
2022-12-04T13:38:58.042Z,3.44
2022-12-04T13:41:27.487Z,3.42
2022-12-04T13:43:58.975Z,3.42
2022-12-04T13:46:37.860Z,3.42
2022-12-04T13:49:26.111Z,3.40
2022-12-04T13:51:54.962Z,3.44
2022-12-04T13:54:32.106Z,3.45
2022-12-04T14:01:02.173Z,3.51
2022-12-04T14:03:35.581Z,3.54
2022-12-04T14:06:08.428Z,3.50
2022-12-04T14:08:42.128Z,3.48
2022-12-04T14:11:15.067Z,3.50
2022-12-04T14:13:45.169Z,3.52
2022-12-04T14:16:23.122Z,3.47
2022-12-04T14:18:59.871Z,3.52
2022-12-04T14:21:50.183Z,3.50
2022-12-04T14:24:19.348Z,3.52
2022-12-04T14:29:46.962Z,3.38
2022-12-04T14:32:21.584Z,3.34
2022-12-04T14:34:50.396Z,3.33
2022-12-04T14:37:24.106Z,3.35
2022-12-04T14:39:52.375Z,3.29
2022-12-04T14:42:25.239Z,3.34
2022-12-04T14:44:55.071Z,3.40
2022-12-04T14:47:34.595Z,3.38
2022-12-04T14:50:13.349Z,3.34
2022-12-04T14:52:46.718Z,3.33
2022-12-04T14:55:21.393Z,3.26
2022-12-04T14:57:54.592Z,3.31
2022-12-04T15:00:24.098Z,3.36
2022-12-04T15:02:54.303Z,3.36
2022-12-04T15:05:25.706Z,3.39
2022-12-04T15:07:57.933Z,3.46
2022-12-04T15:10:44.472Z,3.39
2022-12-04T15:13:14.925Z,3.38
2022-12-04T15:15:47.024Z,3.35
2022-12-04T15:18:18.265Z,3.38
2022-12-04T15:20:55.945Z,3.39
2022-12-04T15:23:27.958Z,3.39
2022-12-04T15:26:17.319Z,3.39
2022-12-04T15:28:46.672Z,3.43
2022-12-04T15:31:17.190Z,3.38
2022-12-04T15:33:48.665Z,3.42
2022-12-04T15:36:20.653Z,3.37
2022-12-04T15:38:51.079Z,3.38
2022-12-04T15:41:31.123Z,3.42
2022-12-04T15:43:59.274Z,3.44
2022-12-04T15:46:34.740Z,3.43
2022-12-04T15:49:08.381Z,3.43
2022-12-04T15:51:36.492Z,3.44
2022-12-04T15:54:05.771Z,3.45
2022-12-04T15:56:33.576Z,3.42
2022-12-04T15:59:03.630Z,3.41
2022-12-04T16:01:39.359Z,3.42
2022-12-04T16:04:07.212Z,3.32
2022-12-04T16:06:36.783Z,3.40
2022-12-04T16:09:22.851Z,3.48
2022-12-04T16:11:59.147Z,3.58
2022-12-04T16:14:27.126Z,3.54
2022-12-04T16:16:58.073Z,3.56
2022-12-04T16:19:35.664Z,3.53
2022-12-04T16:22:10.285Z,3.46
2022-12-04T16:24:39.891Z,3.50
2022-12-04T16:27:11.498Z,3.55
2022-12-04T16:29:42.145Z,3.54
2022-12-04T16:32:11.837Z,3.56
2022-12-04T16:34:42.608Z,3.51
2022-12-04T16:37:16.573Z,3.45
2022-12-04T16:39:47.145Z,3.37
2022-12-04T16:42:18.419Z,3.39
2022-12-04T16:44:46.513Z,3.31
2022-12-04T16:47:19.520Z,3.30
2022-12-04T16:49:49.763Z,3.28
2022-12-04T16:52:18.934Z,3.25
2022-12-04T16:54:48.315Z,3.30
2022-12-04T16:57:16.099Z,3.25
2022-12-04T16:59:44.009Z,3.26
2022-12-04T17:02:16.736Z,3.29
2022-12-04T17:04:44.581Z,3.29
2022-12-04T17:07:12.350Z,3.30
2022-12-04T17:09:39.924Z,3.25
2022-12-04T17:12:31.360Z,3.19
2022-12-04T17:15:03.186Z,3.22
2022-12-04T17:17:32.332Z,3.25
2022-12-04T17:20:00.211Z,3.27
2022-12-04T17:22:27.932Z,3.35
2022-12-04T17:24:56.455Z,3.37
2022-12-04T17:27:25.773Z,3.38
2022-12-04T17:29:53.680Z,3.38
2022-12-04T17:32:22.482Z,3.35
2022-12-04T17:34:50.391Z,3.32
2022-12-04T17:37:20.953Z,3.26
2022-12-04T17:39:48.938Z,3.21
2022-12-04T17:42:19.412Z,3.16
2022-12-04T17:44:48.810Z,3.08
2022-12-04T17:47:16.795Z,3.13
2022-12-04T17:49:46.782Z,3.07
2022-12-04T17:52:17.070Z,3.04
2022-12-04T17:54:49.229Z,3.05
2022-12-04T17:57:18.542Z,3.04
2022-12-04T18:00:06.636Z,3.02
2022-12-04T18:02:34.400Z,3.02
2022-12-04T18:05:02.168Z,3.05
2022-12-04T18:07:29.870Z,3.01
2022-12-04T18:09:57.993Z,2.98
2022-12-04T18:12:36.529Z,2.91
2022-12-04T18:15:11.335Z,2.89
2022-12-04T18:17:39.722Z,2.94
2022-12-04T18:20:09.318Z,2.91
2022-12-04T18:22:41.549Z,2.90
2022-12-04T18:25:17.697Z,2.93
2022-12-04T18:27:45.439Z,2.95
2022-12-04T18:30:15.555Z,2.90
2022-12-04T18:32:44.081Z,3.01
2022-12-04T18:35:11.635Z,3.02
2022-12-04T18:37:39.264Z,3.05
2022-12-04T18:40:08.460Z,3.04
2022-12-04T18:42:36.286Z,3.04
2022-12-04T18:45:03.943Z,3.04
2022-12-04T18:47:36.660Z,3.07
2022-12-04T18:50:04.579Z,3.06
2022-12-04T18:52:38.371Z,3.09
2022-12-04T18:55:06.422Z,3.07
2022-12-04T18:57:36.652Z,3.02
2022-12-04T19:00:04.920Z,3.05
2022-12-04T19:02:34.164Z,3.07
2022-12-04T19:05:01.830Z,3.01
2022-12-04T19:07:29.550Z,3.06
2022-12-04T19:10:12.499Z,3.01
2022-12-04T19:12:40.379Z,3.06
2022-12-04T19:15:08.655Z,3.05
2022-12-04T19:17:37.832Z,3.11
2022-12-04T19:20:06.388Z,3.07
2022-12-04T19:22:34.184Z,3.14
2022-12-04T19:25:02.023Z,3.16
2022-12-04T19:27:29.718Z,3.17
2022-12-04T19:29:57.536Z,3.22
2022-12-04T19:32:25.649Z,3.18
2022-12-04T19:34:54.707Z,3.18
2022-12-04T19:37:22.338Z,3.23
2022-12-04T19:39:49.962Z,3.23
2022-12-04T19:42:17.565Z,3.26
2022-12-04T19:44:49.434Z,3.26
2022-12-04T19:47:17.785Z,3.16
2022-12-04T19:49:46.420Z,3.19
2022-12-04T19:52:15.711Z,3.16
2022-12-04T19:54:47.877Z,3.14
2022-12-04T19:57:15.795Z,3.11
2022-12-04T19:59:46.566Z,3.06
2022-12-04T20:02:15.164Z,3.13
2022-12-04T20:04:43.231Z,3.16
2022-12-04T20:07:11.033Z,3.18
2022-12-04T20:09:40.148Z,3.18
2022-12-04T20:12:08.281Z,3.16
2022-12-04T20:14:35.944Z,3.17
2022-12-04T20:17:03.917Z,3.15
2022-12-04T20:19:31.884Z,3.14
2022-12-04T20:21:59.746Z,3.15
2022-12-04T20:24:27.444Z,3.20
2022-12-04T20:26:56.479Z,3.19
2022-12-04T20:29:24.086Z,3.23
2022-12-04T20:31:51.830Z,3.20
2022-12-04T20:34:20.331Z,3.19
2022-12-04T20:36:51.115Z,3.23
2022-12-04T20:39:20.271Z,3.24
2022-12-04T20:41:48.257Z,3.25
2022-12-04T20:44:18.926Z,3.29
2022-12-04T20:46:47.174Z,3.29
2022-12-04T20:49:21.201Z,3.26
2022-12-04T20:51:50.457Z,3.31
2022-12-04T20:54:20.069Z,3.29
2022-12-04T20:56:49.177Z,3.29
2022-12-04T20:59:19.344Z,3.27
2022-12-04T21:01:48.855Z,3.27
2022-12-04T21:04:17.794Z,3.28
2022-12-04T21:06:48.960Z,3.30
2022-12-04T21:09:18.222Z,3.28
2022-12-04T21:11:50.626Z,3.34
2022-12-04T21:14:38.484Z,3.37
2022-12-04T21:17:09.218Z,3.34
2022-12-04T21:19:39.223Z,3.35
2022-12-04T21:22:07.249Z,3.37
2022-12-04T21:24:38.494Z,3.45
2022-12-04T21:27:10.009Z,3.43
2022-12-04T21:29:52.527Z,3.37
2022-12-04T21:32:22.736Z,3.42
2022-12-04T21:34:51.927Z,3.32
2022-12-04T21:37:19.665Z,3.38
2022-12-04T21:39:51.645Z,3.35
2022-12-04T21:42:31.573Z,3.31
2022-12-04T21:45:01.880Z,3.37
2022-12-04T21:47:30.378Z,3.30
2022-12-04T21:49:58.521Z,3.35
2022-12-04T21:52:26.653Z,3.33
2022-12-04T21:54:55.701Z,3.41
2022-12-04T21:57:28.398Z,3.38
2022-12-04T21:59:56.535Z,3.41
2022-12-04T22:02:27.421Z,3.33
2022-12-04T22:04:55.292Z,3.35
2022-12-04T22:07:23.400Z,3.31
2022-12-04T22:09:51.133Z,3.34
2022-12-04T22:15:18.013Z,3.33
2022-12-04T22:17:52.854Z,3.32
2022-12-04T22:20:20.910Z,3.25
2022-12-04T22:22:51.062Z,3.36
2022-12-04T22:25:19.219Z,3.31
2022-12-04T22:27:50.371Z,3.37
2022-12-04T22:30:18.392Z,3.33
2022-12-04T22:32:47.622Z,3.36
2022-12-04T22:35:15.472Z,3.27
2022-12-04T22:37:53.157Z,3.28
2022-12-04T22:40:21.195Z,3.27
2022-12-04T22:42:49.137Z,3.26
2022-12-04T22:45:17.883Z,3.18
2022-12-04T22:47:46.971Z,3.08
2022-12-04T22:50:14.941Z,3.06
2022-12-04T22:52:43.247Z,3.09
2022-12-04T22:55:11.031Z,3.18
2022-12-04T22:57:38.754Z,3.21
2022-12-04T23:00:09.258Z,3.17
2022-12-04T23:02:36.822Z,3.13
2022-12-04T23:05:06.050Z,3.13
2022-12-04T23:07:37.272Z,3.09
2022-12-04T23:10:05.837Z,3.06
2022-12-04T23:12:33.355Z,3.10
2022-12-04T23:15:00.879Z,3.15
2022-12-04T23:17:28.521Z,3.13
2022-12-04T23:19:56.370Z,3.21
2022-12-04T23:22:25.461Z,3.19
2022-12-04T23:24:58.068Z,3.19
2022-12-04T23:27:25.580Z,3.19
2022-12-04T23:29:53.912Z,3.15
2022-12-04T23:32:21.638Z,3.12
2022-12-04T23:34:49.182Z,3.08
2022-12-04T23:37:16.722Z,3.11
2022-12-04T23:39:45.587Z,3.23
2022-12-04T23:42:13.335Z,3.18
2022-12-04T23:44:40.848Z,3.10
2022-12-04T23:47:08.396Z,3.15
2022-12-04T23:49:35.966Z,3.26
2022-12-04T23:52:03.476Z,3.28
2022-12-04T23:54:34.820Z,3.22
2022-12-04T23:57:03.918Z,3.29
2022-12-04T23:59:31.541Z,3.24
